createdAt,value
2019-05-23T00:01:13.829Z,13.20
2019-05-23T00:04:01.486Z,13.20
2019-05-23T00:06:31.842Z,13.20
2019-05-23T00:09:00.898Z,13.10
2019-05-23T00:11:43.398Z,13.10
2019-05-23T00:14:37.802Z,13.00
2019-05-23T00:17:09.713Z,13.00
2019-05-23T00:19:38.345Z,12.90
2019-05-23T00:22:08.771Z,12.90
2019-05-23T00:24:38.860Z,12.80
2019-05-23T00:27:09.472Z,12.80
2019-05-23T00:29:40.522Z,12.80
2019-05-23T00:32:26.163Z,12.70
2019-05-23T00:34:56.183Z,12.70
2019-05-23T00:37:25.310Z,12.70
2019-05-23T00:39:54.334Z,12.60
2019-05-23T00:42:23.148Z,12.60
2019-05-23T00:44:52.294Z,12.60
2019-05-23T00:47:21.303Z,12.60
2019-05-23T00:49:50.341Z,12.60
2019-05-23T00:52:20.154Z,12.50
2019-05-23T00:54:50.012Z,12.50
2019-05-23T00:57:19.003Z,12.50
2019-05-23T00:59:49.198Z,12.40
2019-05-23T01:02:18.352Z,12.40
2019-05-23T01:04:47.220Z,12.30
2019-05-23T01:07:17.272Z,12.30
2019-05-23T01:09:46.414Z,12.30
2019-05-23T01:12:16.599Z,12.20
2019-05-23T01:14:47.175Z,12.20
2019-05-23T01:17:17.747Z,12.10
2019-05-23T01:19:46.327Z,12.10
2019-05-23T01:22:16.756Z,12.10
2019-05-23T01:24:47.036Z,12.10
2019-05-23T01:27:17.198Z,12.00
2019-05-23T01:29:50.172Z,12.00
2019-05-23T01:32:26.291Z,12.00
2019-05-23T01:34:56.983Z,12.00
2019-05-23T01:37:26.162Z,12.00
2019-05-23T01:39:55.571Z,11.90
2019-05-23T01:42:26.215Z,11.90
2019-05-23T01:44:55.903Z,11.90
2019-05-23T01:47:24.488Z,11.90
2019-05-23T01:49:53.393Z,11.80
2019-05-23T01:52:22.121Z,11.80
2019-05-23T01:54:50.842Z,11.80
2019-05-23T01:57:19.884Z,11.70
2019-05-23T01:59:48.473Z,11.70
2019-05-23T02:02:18.991Z,11.70
2019-05-23T02:04:48.527Z,11.70
2019-05-23T02:07:18.242Z,11.70
2019-05-23T02:09:46.816Z,11.60
2019-05-23T02:12:17.207Z,11.60
2019-05-23T02:14:46.534Z,11.60
2019-05-23T02:17:16.025Z,11.50
2019-05-23T02:19:45.085Z,11.50
2019-05-23T02:22:14.333Z,11.50
2019-05-23T02:24:44.280Z,11.50
2019-05-23T02:27:13.035Z,11.40
2019-05-23T02:29:43.038Z,11.40
2019-05-23T02:32:12.851Z,11.40
2019-05-23T02:34:41.891Z,11.40
2019-05-23T02:37:30.720Z,11.40
2019-05-23T02:40:01.197Z,11.30
2019-05-23T02:42:37.004Z,11.30
2019-05-23T02:45:09.430Z,11.30
2019-05-23T02:47:42.948Z,11.20
2019-05-23T02:50:16.237Z,11.20
2019-05-23T02:52:48.278Z,11.20
2019-05-23T02:55:23.917Z,11.20
2019-05-23T02:57:54.324Z,11.10
2019-05-23T03:00:53.502Z,11.10
2019-05-23T03:03:17.285Z,11.10
2019-05-23T03:05:48.306Z,11.10
2019-05-23T03:08:17.294Z,11.10
2019-05-23T03:10:58.135Z,11.00
2019-05-23T03:13:30.196Z,11.00
2019-05-23T03:16:00.526Z,11.00
2019-05-23T03:18:34.587Z,11.00
2019-05-23T03:21:03.950Z,11.00
2019-05-23T03:23:32.740Z,11.00
2019-05-23T03:26:26.328Z,11.00
2019-05-23T03:28:56.041Z,11.00
2019-05-23T03:31:30.586Z,11.00
2019-05-23T03:33:57.265Z,11.00
2019-05-23T03:36:26.454Z,11.00
2019-05-23T03:38:55.476Z,11.00
2019-05-23T03:41:25.272Z,11.00
2019-05-23T03:43:54.144Z,11.00
2019-05-23T03:46:27.211Z,11.00
2019-05-23T03:48:56.173Z,11.00
2019-05-23T03:51:25.126Z,11.00
2019-05-23T03:53:54.684Z,11.10
2019-05-23T03:56:24.898Z,11.10
2019-05-23T03:58:56.086Z,11.10
2019-05-23T04:01:43.986Z,11.10
2019-05-23T04:03:58.648Z,11.10
2019-05-23T04:06:28.338Z,11.20
2019-05-23T04:08:57.288Z,11.20
2019-05-23T04:11:26.258Z,11.20
2019-05-23T04:13:55.247Z,11.20
2019-05-23T04:16:30.066Z,11.20
2019-05-23T04:18:55.771Z,11.20
2019-05-23T04:21:25.363Z,11.20
2019-05-23T04:23:54.310Z,11.30
2019-05-23T04:26:23.661Z,11.30
2019-05-23T04:28:52.755Z,11.30
2019-05-23T04:31:22.241Z,11.30
2019-05-23T04:33:51.012Z,11.30
2019-05-23T04:36:20.459Z,11.40
2019-05-23T04:38:49.691Z,11.40
2019-05-23T04:41:18.637Z,11.50
2019-05-23T04:43:47.545Z,11.40
2019-05-23T04:46:16.317Z,11.50
2019-05-23T04:48:45.282Z,11.50
2019-05-23T04:51:14.081Z,11.50
2019-05-23T04:53:42.900Z,11.60
2019-05-23T04:56:11.446Z,11.60
2019-05-23T04:58:40.528Z,11.60
2019-05-23T05:01:10.056Z,11.70
2019-05-23T05:03:39.368Z,11.70
2019-05-23T05:06:08.460Z,11.70
2019-05-23T05:08:37.169Z,11.70
2019-05-23T05:11:06.498Z,11.80
2019-05-23T05:13:35.344Z,11.90
2019-05-23T05:16:04.837Z,11.90
2019-05-23T05:18:33.617Z,12.00
2019-05-23T05:21:02.504Z,12.00
2019-05-23T05:23:31.192Z,12.10
2019-05-23T05:25:59.970Z,12.10
2019-05-23T05:28:28.522Z,12.20
2019-05-23T05:30:57.447Z,12.20
2019-05-23T05:33:26.213Z,12.30
2019-05-23T05:35:54.795Z,12.40
2019-05-23T05:38:23.836Z,12.40
2019-05-23T05:40:52.754Z,12.50
2019-05-23T05:43:21.583Z,12.60
2019-05-23T05:45:50.236Z,12.70
2019-05-23T05:48:18.963Z,12.70
2019-05-23T05:50:48.158Z,12.80
2019-05-23T05:53:16.991Z,12.80
2019-05-23T05:55:45.722Z,12.90
2019-05-23T05:58:18.010Z,13.00
2019-05-23T06:00:51.435Z,13.10
2019-05-23T06:03:20.216Z,13.20
2019-05-23T06:05:50.503Z,13.30
2019-05-23T06:08:21.132Z,13.40
2019-05-23T06:10:50.039Z,13.50
2019-05-23T06:13:18.881Z,13.60
2019-05-23T06:15:48.977Z,13.60
2019-05-23T06:18:17.767Z,13.70
2019-05-23T06:20:47.755Z,13.80
2019-05-23T06:23:18.996Z,13.90
2019-05-23T06:25:47.872Z,13.90
2019-05-23T06:28:16.897Z,14.00
2019-05-23T06:30:46.484Z,14.10
2019-05-23T06:33:23.298Z,14.10
2019-05-23T06:35:45.663Z,14.20
2019-05-23T06:38:14.607Z,14.20
2019-05-23T06:40:43.422Z,14.30
2019-05-23T06:43:12.163Z,14.40
2019-05-23T06:45:42.729Z,14.50
2019-05-23T06:48:14.151Z,14.50
2019-05-23T06:50:42.808Z,14.60
2019-05-23T06:53:11.719Z,14.70
2019-05-23T06:55:40.512Z,14.70
2019-05-23T06:58:09.738Z,14.80
2019-05-23T07:00:38.993Z,14.80
2019-05-23T07:03:08.026Z,14.90
2019-05-23T07:05:37.703Z,15.00
2019-05-23T07:08:07.393Z,15.10
2019-05-23T07:10:36.493Z,15.20
2019-05-23T07:13:05.630Z,15.30
2019-05-23T07:15:34.455Z,15.40
2019-05-23T07:18:03.448Z,15.50
2019-05-23T07:20:32.291Z,15.60
2019-05-23T07:23:01.698Z,15.70
2019-05-23T07:25:30.744Z,15.80
2019-05-23T07:28:00.471Z,15.90
2019-05-23T07:30:29.361Z,16.00
2019-05-23T07:32:58.142Z,16.10
2019-05-23T07:35:26.906Z,16.20
2019-05-23T07:37:56.256Z,16.30
2019-05-23T07:40:28.069Z,16.40
2019-05-23T07:42:56.915Z,16.50
2019-05-23T07:45:27.311Z,16.60
2019-05-23T07:47:55.939Z,16.70
2019-05-23T07:50:24.842Z,16.70
2019-05-23T07:52:55.182Z,16.80
2019-05-23T07:55:28.099Z,16.90
2019-05-23T07:57:56.967Z,17.00
2019-05-23T08:00:29.730Z,17.10
2019-05-23T08:03:00.003Z,17.20
2019-05-23T08:05:29.418Z,17.20
2019-05-23T08:07:58.372Z,17.30
2019-05-23T08:10:33.541Z,17.40
2019-05-23T08:12:57.945Z,17.40
2019-05-23T08:15:27.984Z,17.50
2019-05-23T08:17:57.076Z,17.60
2019-05-23T08:20:26.802Z,17.70
2019-05-23T08:22:55.496Z,17.80
2019-05-23T08:25:24.327Z,18.00
2019-05-23T08:27:53.135Z,18.10
2019-05-23T08:30:22.332Z,18.10
2019-05-23T08:32:51.328Z,18.20
2019-05-23T08:35:20.853Z,18.30
2019-05-23T08:37:49.972Z,18.40
2019-05-23T08:40:18.810Z,18.40
2019-05-23T08:42:47.537Z,18.50
2019-05-23T08:45:17.697Z,18.60
2019-05-23T08:47:46.714Z,18.60
2019-05-23T08:50:16.965Z,18.70
2019-05-23T08:52:46.195Z,18.70
2019-05-23T08:55:23.990Z,18.80
2019-05-23T08:57:56.945Z,18.90
2019-05-23T09:00:27.666Z,19.00
2019-05-23T09:02:58.621Z,19.10
2019-05-23T09:05:34.963Z,19.20
2019-05-23T09:08:03.786Z,19.30
2019-05-23T09:10:32.941Z,19.30
2019-05-23T09:13:01.870Z,19.40
2019-05-23T09:15:30.670Z,19.50
2019-05-23T09:17:59.693Z,19.50
2019-05-23T09:20:28.500Z,19.50
2019-05-23T09:22:57.130Z,19.50
2019-05-23T09:25:25.927Z,19.70
2019-05-23T09:27:55.321Z,19.70
2019-05-23T09:30:25.028Z,19.80
2019-05-23T09:32:54.028Z,19.80
2019-05-23T09:35:23.028Z,19.90
2019-05-23T09:37:51.821Z,20.00
2019-05-23T09:40:21.237Z,20.10
2019-05-23T09:42:49.973Z,20.10
2019-05-23T09:45:18.926Z,20.20
2019-05-23T09:47:51.099Z,20.30
2019-05-23T09:50:20.141Z,20.40
2019-05-23T09:52:48.791Z,20.50
2019-05-23T09:55:18.584Z,20.60
2019-05-23T09:57:47.328Z,20.70
2019-05-23T10:00:19.562Z,20.80
2019-05-23T10:02:48.246Z,20.80
2019-05-23T10:05:17.581Z,20.90
2019-05-23T10:07:46.186Z,21.00
2019-05-23T10:10:17.766Z,21.10
2019-05-23T10:12:46.861Z,21.20
2019-05-23T10:15:20.766Z,21.40
2019-05-23T10:17:49.385Z,21.40
2019-05-23T10:20:18.782Z,21.40
2019-05-23T10:22:47.260Z,21.40
2019-05-23T10:25:16.401Z,21.50
2019-05-23T10:27:45.093Z,21.60
2019-05-23T10:30:15.781Z,21.80
2019-05-23T10:32:44.396Z,21.80
2019-05-23T10:35:14.888Z,21.70
2019-05-23T10:37:43.504Z,21.60
2019-05-23T10:40:14.456Z,21.50
2019-05-23T10:42:43.119Z,21.50
2019-05-23T10:45:12.511Z,21.70
2019-05-23T10:47:41.160Z,22.00
2019-05-23T10:50:10.457Z,22.30
2019-05-23T10:52:39.140Z,22.60
2019-05-23T10:55:08.376Z,22.80
2019-05-23T10:57:37.326Z,22.90
2019-05-23T11:00:07.912Z,22.70
2019-05-23T11:02:37.219Z,22.50
2019-05-23T11:05:13.069Z,22.50
2019-05-23T11:07:38.536Z,22.40
2019-05-23T11:10:07.880Z,22.60
2019-05-23T11:12:37.277Z,22.90
2019-05-23T11:15:07.377Z,23.00
2019-05-23T11:17:37.034Z,23.00
2019-05-23T11:20:08.475Z,23.10
2019-05-23T11:22:37.099Z,23.20
2019-05-23T11:25:08.581Z,23.20
2019-05-23T11:27:37.280Z,23.40
2019-05-23T11:30:11.403Z,23.50
2019-05-23T11:32:40.085Z,23.60
2019-05-23T11:35:09.078Z,23.90
2019-05-23T11:37:37.720Z,23.90
2019-05-23T11:40:07.448Z,23.90
2019-05-23T11:42:36.765Z,23.90
2019-05-23T11:45:09.592Z,23.90
2019-05-23T11:47:38.340Z,23.90
2019-05-23T11:50:08.169Z,24.00
2019-05-23T11:52:37.467Z,24.30
2019-05-23T11:55:07.741Z,24.60
2019-05-23T11:57:38.448Z,24.70
2019-05-23T12:00:09.590Z,24.60
2019-05-23T12:02:40.428Z,24.50
2019-05-23T12:05:11.103Z,24.50
2019-05-23T12:07:40.023Z,24.50
2019-05-23T12:10:09.692Z,24.70
2019-05-23T12:12:38.416Z,24.70
2019-05-23T12:15:12.033Z,24.80
2019-05-23T12:17:41.234Z,25.40
2019-05-23T12:20:10.803Z,26.50
2019-05-23T12:22:40.104Z,27.90
2019-05-23T12:25:21.411Z,29.20
2019-05-23T12:27:52.833Z,29.70
2019-05-23T12:30:22.775Z,29.60
2019-05-23T12:32:51.360Z,29.70
2019-05-23T12:35:19.978Z,29.70
2019-05-23T12:37:49.105Z,28.90
2019-05-23T12:40:18.260Z,27.90
2019-05-23T12:42:46.960Z,27.30
2019-05-23T12:45:16.735Z,27.30
2019-05-23T12:47:53.300Z,27.20
2019-05-23T12:50:35.762Z,28.30
2019-05-23T12:53:04.682Z,29.60
2019-05-23T12:55:33.232Z,29.80
2019-05-23T12:58:02.159Z,29.30
2019-05-23T13:00:41.721Z,29.10
2019-05-23T13:03:12.826Z,28.80
2019-05-23T13:05:42.195Z,28.70
2019-05-23T13:08:10.938Z,28.30
2019-05-23T13:10:39.830Z,28.90
2019-05-23T13:13:08.824Z,31.00
2019-05-23T13:15:37.635Z,32.20
2019-05-23T13:18:06.456Z,33.20
2019-05-23T13:20:35.557Z,33.60
2019-05-23T13:23:04.473Z,34.40
2019-05-23T13:25:33.316Z,34.60
2019-05-23T13:28:02.128Z,34.70
2019-05-23T13:30:30.955Z,34.80
2019-05-23T13:33:03.430Z,35.10
2019-05-23T13:35:30.295Z,35.10
2019-05-23T13:37:59.184Z,35.30
2019-05-23T13:40:28.156Z,35.40
2019-05-23T13:42:57.327Z,34.40
2019-05-23T13:45:26.151Z,32.90
2019-05-23T13:47:54.957Z,31.60
2019-05-23T13:50:23.677Z,31.10
2019-05-23T13:52:52.935Z,31.00
2019-05-23T13:55:21.959Z,31.00
2019-05-23T13:57:50.623Z,31.00
2019-05-23T14:00:20.827Z,30.90
2019-05-23T14:02:49.710Z,30.90
2019-05-23T14:05:19.771Z,30.80
2019-05-23T14:07:48.508Z,30.60
2019-05-23T14:10:17.466Z,30.30
2019-05-23T14:12:46.646Z,30.20
2019-05-23T14:15:16.931Z,30.10
2019-05-23T14:17:46.887Z,30.00
2019-05-23T14:20:16.067Z,29.80
2019-05-23T14:22:50.155Z,29.90
2019-05-23T14:25:19.167Z,30.10
2019-05-23T14:27:52.260Z,29.80
2019-05-23T14:30:35.446Z,29.50
2019-05-23T14:33:06.025Z,29.30
2019-05-23T14:35:36.681Z,29.30
2019-05-23T14:38:07.334Z,28.90
2019-05-23T14:40:36.184Z,28.60
2019-05-23T14:43:09.663Z,28.40
2019-05-23T14:45:56.152Z,28.10
2019-05-23T14:48:26.419Z,27.80
2019-05-23T14:50:56.763Z,27.40
2019-05-23T14:53:33.099Z,27.20
2019-05-23T14:56:01.739Z,27.50
2019-05-23T14:58:31.740Z,28.00
2019-05-23T15:01:00.589Z,28.10
2019-05-23T15:03:29.999Z,28.00
2019-05-23T15:05:58.632Z,27.80
2019-05-23T15:08:27.561Z,27.70
2019-05-23T15:10:56.095Z,27.60
2019-05-23T15:13:24.869Z,27.40
2019-05-23T15:15:53.467Z,27.60
2019-05-23T15:18:22.146Z,27.80
2019-05-23T15:20:50.833Z,27.80
2019-05-23T15:23:19.514Z,27.60
2019-05-23T15:25:48.130Z,27.30
2019-05-23T15:28:16.867Z,27.20
2019-05-23T15:30:45.558Z,27.20
2019-05-23T15:33:14.383Z,27.10
2019-05-23T15:35:43.277Z,27.10
2019-05-23T15:38:12.075Z,26.80
2019-05-23T15:40:40.977Z,26.50
2019-05-23T15:43:10.514Z,26.30
2019-05-23T15:45:39.373Z,26.00
2019-05-23T15:48:08.014Z,26.00
2019-05-23T15:50:38.327Z,25.80
2019-05-23T15:53:11.504Z,25.70
2019-05-23T15:55:50.870Z,25.60
2019-05-23T15:58:22.216Z,25.70
2019-05-23T16:00:55.911Z,25.80
2019-05-23T16:03:42.611Z,25.80
2019-05-23T16:06:13.347Z,25.90
2019-05-23T16:08:42.457Z,25.80
2019-05-23T16:11:11.382Z,25.80
2019-05-23T16:13:40.769Z,25.70
2019-05-23T16:16:09.493Z,25.60
2019-05-23T16:18:38.419Z,25.50
2019-05-23T16:21:07.910Z,25.30
2019-05-23T16:23:36.454Z,25.20
2019-05-23T16:26:05.359Z,25.10
2019-05-23T16:28:33.913Z,25.10
2019-05-23T16:31:02.504Z,25.10
2019-05-23T16:33:31.186Z,25.20
2019-05-23T16:36:00.065Z,25.20
2019-05-23T16:38:28.687Z,25.00
2019-05-23T16:40:57.514Z,24.80
2019-05-23T16:43:26.266Z,24.70
2019-05-23T16:45:54.972Z,24.60
2019-05-23T16:48:23.621Z,24.60
2019-05-23T16:50:52.161Z,24.60
2019-05-23T16:53:21.072Z,24.80
2019-05-23T16:56:00.710Z,24.90
2019-05-23T16:58:31.025Z,24.90
2019-05-23T17:01:04.635Z,24.90
2019-05-23T17:03:37.892Z,24.70
2019-05-23T17:06:08.988Z,24.40
2019-05-23T17:08:48.260Z,24.30
2019-05-23T17:11:33.596Z,24.30
2019-05-23T17:14:12.684Z,24.30
2019-05-23T17:16:43.075Z,24.20
2019-05-23T17:19:13.531Z,24.20
2019-05-23T17:21:43.736Z,24.10
2019-05-23T17:24:14.251Z,24.00
2019-05-23T17:26:50.267Z,24.00
2019-05-23T17:29:20.826Z,23.90
2019-05-23T17:31:51.484Z,23.90
2019-05-23T17:34:20.346Z,24.00
2019-05-23T17:36:49.343Z,24.00
2019-05-23T17:39:18.594Z,24.00
2019-05-23T17:41:47.222Z,24.00
2019-05-23T17:44:16.346Z,24.00
2019-05-23T17:46:45.058Z,24.00
2019-05-23T17:49:14.007Z,24.00
2019-05-23T17:51:42.779Z,23.90
2019-05-23T17:54:12.020Z,23.80
2019-05-23T17:56:40.672Z,23.80
2019-05-23T17:59:09.464Z,23.70
2019-05-23T18:01:38.354Z,23.60
2019-05-23T18:04:07.424Z,23.50
2019-05-23T18:06:36.435Z,23.40
2019-05-23T18:09:08.537Z,23.50
2019-05-23T18:11:37.531Z,23.40
2019-05-23T18:14:07.754Z,23.30
2019-05-23T18:16:37.455Z,23.20
2019-05-23T18:19:07.816Z,23.00
2019-05-23T18:21:36.700Z,22.90
2019-05-23T18:24:06.394Z,22.80
2019-05-23T18:26:39.494Z,22.70
2019-05-23T18:29:08.619Z,22.60
2019-05-23T18:31:38.864Z,22.40
2019-05-23T18:34:09.363Z,22.30
2019-05-23T18:36:38.509Z,22.20
2019-05-23T18:39:10.299Z,22.10
2019-05-23T18:41:39.696Z,22.00
2019-05-23T18:44:08.505Z,21.90
2019-05-23T18:46:45.124Z,21.80
2019-05-23T18:49:15.102Z,21.80
2019-05-23T18:51:43.814Z,21.70
2019-05-23T18:54:12.556Z,21.60
2019-05-23T18:56:41.207Z,21.50
2019-05-23T18:59:11.499Z,21.50
2019-05-23T19:01:40.521Z,21.40
2019-05-23T19:04:09.442Z,21.30
2019-05-23T19:06:38.822Z,21.20
2019-05-23T19:09:11.209Z,21.10
2019-05-23T19:11:41.073Z,21.10
2019-05-23T19:14:10.094Z,21.00
2019-05-23T19:16:39.896Z,20.90
2019-05-23T19:19:08.693Z,20.80
2019-05-23T19:21:37.574Z,20.70
2019-05-23T19:24:06.310Z,20.70
2019-05-23T19:26:35.287Z,20.60
2019-05-23T19:29:04.531Z,20.50
2019-05-23T19:31:33.244Z,20.40
2019-05-23T19:34:02.144Z,20.40
2019-05-23T19:36:31.081Z,20.30
2019-05-23T19:39:00.729Z,20.20
2019-05-23T19:41:37.380Z,20.20
2019-05-23T19:44:00.073Z,20.10
2019-05-23T19:46:29.213Z,20.00
2019-05-23T19:48:58.158Z,20.00
2019-05-23T19:51:26.907Z,19.90
2019-05-23T19:53:55.906Z,19.80
2019-05-23T19:56:24.906Z,19.80
2019-05-23T19:58:53.617Z,19.80
2019-05-23T20:01:22.603Z,19.70
2019-05-23T20:03:51.800Z,19.60
2019-05-23T20:06:20.961Z,19.60
2019-05-23T20:08:49.671Z,19.60
2019-05-23T20:11:18.576Z,19.50
2019-05-23T20:13:47.384Z,19.50
2019-05-23T20:16:16.383Z,19.40
2019-05-23T20:18:45.129Z,19.40
2019-05-23T20:21:13.928Z,19.40
2019-05-23T20:23:42.662Z,19.30
2019-05-23T20:26:11.428Z,19.20
2019-05-23T20:28:40.518Z,19.20
2019-05-23T20:31:09.352Z,19.20
2019-05-23T20:33:38.187Z,19.20
2019-05-23T20:36:11.980Z,19.10
2019-05-23T20:38:39.247Z,19.10
2019-05-23T20:41:08.605Z,19.10
2019-05-23T20:43:37.186Z,19.00
2019-05-23T20:46:06.100Z,19.00
2019-05-23T20:48:35.184Z,18.90
2019-05-23T20:51:08.738Z,18.90
2019-05-23T20:53:37.471Z,18.90
2019-05-23T20:56:06.394Z,18.80
2019-05-23T20:58:35.181Z,18.80
2019-05-23T21:01:11.277Z,18.70
2019-05-23T21:03:40.192Z,18.60
2019-05-23T21:06:08.958Z,18.50
2019-05-23T21:08:37.652Z,18.40
2019-05-23T21:11:06.538Z,18.40
2019-05-23T21:13:35.561Z,18.30
2019-05-23T21:16:06.345Z,18.20
2019-05-23T21:18:34.960Z,18.20
2019-05-23T21:21:03.705Z,18.10
2019-05-23T21:23:32.331Z,18.10
2019-05-23T21:26:05.598Z,18.00
2019-05-23T21:28:34.300Z,17.90
2019-05-23T21:31:05.191Z,17.80
2019-05-23T21:33:33.803Z,17.70
2019-05-23T21:36:02.914Z,17.70
2019-05-23T21:38:31.867Z,17.60
2019-05-23T21:41:03.155Z,17.60
2019-05-23T21:43:30.791Z,17.60
2019-05-23T21:45:59.502Z,17.50
2019-05-23T21:48:28.140Z,17.50
2019-05-23T21:50:56.908Z,17.40
2019-05-23T21:53:25.557Z,17.30
2019-05-23T21:55:54.434Z,17.30
2019-05-23T21:58:23.192Z,17.20
2019-05-23T22:01:02.327Z,17.20
2019-05-23T22:03:32.763Z,17.10
2019-05-23T22:06:02.017Z,17.00
2019-05-23T22:08:30.823Z,17.00
2019-05-23T22:10:59.346Z,17.00
2019-05-23T22:13:28.117Z,16.90
2019-05-23T22:15:59.580Z,16.80
2019-05-23T22:18:29.903Z,16.80
2019-05-23T22:20:58.592Z,16.80
2019-05-23T22:23:27.257Z,16.70
2019-05-23T22:25:55.867Z,16.60
2019-05-23T22:28:24.733Z,16.60
2019-05-23T22:30:53.452Z,16.50
2019-05-23T22:33:26.903Z,16.50
2019-05-23T22:35:56.147Z,16.40
2019-05-23T22:38:24.939Z,16.40
2019-05-23T22:40:53.429Z,16.40
2019-05-23T22:43:22.392Z,16.40
2019-05-23T22:45:51.092Z,16.40
2019-05-23T22:48:20.231Z,16.30
2019-05-23T22:50:48.783Z,16.30
2019-05-23T22:53:17.346Z,16.30
2019-05-23T22:55:45.962Z,16.20
2019-05-23T22:58:14.862Z,16.20
2019-05-23T23:00:45.260Z,16.20
2019-05-23T23:03:14.005Z,16.10
2019-05-23T23:05:42.703Z,16.10
2019-05-23T23:08:11.457Z,16.10
2019-05-23T23:10:40.827Z,16.00
2019-05-23T23:13:09.571Z,16.00
2019-05-23T23:15:38.350Z,16.00
2019-05-23T23:18:07.899Z,16.00
2019-05-23T23:20:36.551Z,15.90
2019-05-23T23:23:05.292Z,15.90
2019-05-23T23:25:34.220Z,15.90
2019-05-23T23:28:02.895Z,15.90
2019-05-23T23:30:33.163Z,15.80
2019-05-23T23:33:01.782Z,15.80
2019-05-23T23:35:30.416Z,15.80
2019-05-23T23:37:58.961Z,15.80
2019-05-23T23:40:28.264Z,15.80
2019-05-23T23:42:57.093Z,15.70
2019-05-23T23:45:43.644Z,15.70
2019-05-23T23:48:29.741Z,15.70
2019-05-23T23:51:16.258Z,15.60
2019-05-23T23:54:02.925Z,15.60
2019-05-23T23:56:49.799Z,15.60
2019-05-23T23:59:18.297Z,15.50
